Time;durP1;ratioP1;P1;durP2;ratioP2;P2;SDS_P1;SDS_P2;PMS_P1;PMS_P2;Temp;Humidity;BMP_temperature;BMP_pressure;BME280_temperature;BME280_humidity;BME280_pressure;Samples;Min_cycle;Max_cycle;Signal;HPM_P1;HPM_P2
2021/01/29 00:00:30;;;;;;;0.77;0.60;;;8.80;99.90;;;;;;5037740;28;20578;-73
2021/01/29 00:03:00;;;;;;;0.87;0.60;;;8.70;99.90;;;;;;5043539;28;20464;-74
2021/01/29 00:05:32;;;;;;;0.60;0.60;;;8.60;99.90;;;;;;5033780;28;21168;-74
2021/01/29 00:07:59;;;;;;;0.63;0.63;;;8.60;99.90;;;;;;5042531;28;20499;-74
2021/01/29 00:10:29;;;;;;;0.60;0.60;;;8.60;99.90;;;;;;5040832;28;20458;-74
2021/01/29 00:12:57;;;;;;;1.13;0.70;;;8.60;99.90;;;;;;5045576;28;20456;-75
2021/01/29 00:15:24;;;;;;;2.20;0.50;;;8.60;99.90;;;;;;5028933;28;20526;-74
2021/01/29 00:17:51;;;;;;;0.50;0.50;;;8.60;99.90;;;;;;5043206;28;20491;-73
2021/01/29 00:20:22;;;;;;;0.60;0.60;;;8.50;99.90;;;;;;5042472;28;20509;-75
2021/01/29 00:22:50;;;;;;;0.60;0.60;;;8.50;99.90;;;;;;5039316;28;20458;-74
2021/01/29 00:25:20;;;;;;;0.57;0.57;;;8.50;99.90;;;;;;5044480;28;20521;-74
2021/01/29 00:27:47;;;;;;;0.80;0.80;;;8.50;99.90;;;;;;5037978;28;20552;-75
2021/01/29 00:30:20;;;;;;;0.60;0.60;;;8.40;99.90;;;;;;5035878;28;20546;-76
2021/01/29 00:32:48;;;;;;;0.90;0.90;;;8.40;99.90;;;;;;5041922;28;22305;-75
2021/01/29 00:35:16;;;;;;;0.80;0.80;;;8.40;99.90;;;;;;5043097;28;20846;-74
2021/01/29 00:37:45;;;;;;;1.00;1.00;;;8.40;99.90;;;;;;5043647;28;20851;-74
2021/01/29 00:40:13;;;;;;;1.90;0.80;;;8.40;99.90;;;;;;5034273;28;20526;-74
2021/01/29 00:42:40;;;;;;;1.10;0.80;;;8.40;99.90;;;;;;5041909;28;20477;-75
2021/01/29 00:45:11;;;;;;;0.80;0.80;;;8.40;99.90;;;;;;5048228;28;20471;-75
2021/01/29 00:47:38;;;;;;;0.80;0.70;;;8.40;99.90;;;;;;5046882;28;21186;-74
2021/01/29 00:50:07;;;;;;;1.43;0.90;;;8.40;99.90;;;;;;5037772;28;20468;-74
2021/01/29 00:52:34;;;;;;;0.80;0.80;;;8.40;99.90;;;;;;5040946;28;20459;-74
2021/01/29 00:55:04;;;;;;;0.73;0.73;;;8.60;99.90;;;;;;5047378;28;20517;-74
2021/01/29 00:57:31;;;;;;;0.80;0.80;;;8.50;99.90;;;;;;5046256;28;20487;-75
2021/01/29 00:59:59;;;;;;;0.90;0.63;;;8.50;99.90;;;;;;5036860;28;20510;-75
2021/01/29 01:02:26;;;;;;;0.70;0.70;;;8.50;99.90;;;;;;5039434;28;20477;-75
2021/01/29 01:04:54;;;;;;;1.03;0.70;;;8.60;99.90;;;;;;5038679;28;20467;-75
2021/01/29 01:07:22;;;;;;;2.20;0.90;;;8.60;99.90;;;;;;5041485;28;20500;-75
2021/01/29 01:09:49;;;;;;;0.60;0.60;;;8.70;99.90;;;;;;5038421;28;20467;-72
2021/01/29 01:12:17;;;;;;;1.90;0.70;;;8.70;99.90;;;;;;5041233;28;20478;-75
2021/01/29 01:14:45;;;;;;;0.87;0.80;;;8.70;99.90;;;;;;5044949;28;20492;-75
2021/01/29 01:17:12;;;;;;;0.70;0.70;;;8.70;99.90;;;;;;5043738;28;20495;-77
2021/01/29 01:19:39;;;;;;;1.20;0.73;;;8.70;99.90;;;;;;5037686;28;20977;-75
2021/01/29 01:22:08;;;;;;;0.70;0.70;;;8.60;99.90;;;;;;5042179;28;20477;-75
2021/01/29 01:24:39;;;;;;;0.60;0.60;;;8.60;99.90;;;;;;5046468;28;20465;-75
2021/01/29 01:27:08;;;;;;;0.73;0.73;;;8.60;99.90;;;;;;5037832;28;21127;-74
2021/01/29 01:29:36;;;;;;;0.70;0.70;;;8.60;99.90;;;;;;5046442;28;20452;-74
2021/01/29 01:32:04;;;;;;;0.77;0.77;;;8.60;99.90;;;;;;5041340;28;20518;-75
2021/01/29 01:34:31;;;;;;;0.67;0.67;;;8.60;99.90;;;;;;5045093;28;20491;-76
2021/01/29 01:36:58;;;;;;;1.33;0.70;;;8.60;99.90;;;;;;5045652;28;20875;-74
2021/01/29 01:39:26;;;;;;;0.80;0.80;;;8.60;99.90;;;;;;5039186;28;20476;-75
2021/01/29 01:41:54;;;;;;;0.80;0.80;;;8.50;99.90;;;;;;5045110;28;20461;-77
2021/01/29 01:44:32;;;;;;;0.70;0.70;;;8.50;99.90;;;;;;5047468;28;20470;-75
2021/01/29 01:47:06;;;;;;;0.73;0.73;;;8.50;99.90;;;;;;5039942;28;20506;-74
2021/01/29 01:49:36;;;;;;;0.60;0.60;;;8.50;99.90;;;;;;5042900;28;20465;-75
2021/01/29 01:52:08;;;;;;;0.50;0.50;;;8.50;99.90;;;;;;5040719;28;20499;-75
2021/01/29 01:54:41;;;;;;;0.70;0.70;;;8.60;99.90;;;;;;5047242;28;20587;-76
2021/01/29 01:57:11;;;;;;;0.73;0.70;;;8.50;99.90;;;;;;5048363;28;20500;-75
2021/01/29 01:59:41;;;;;;;0.80;0.67;;;8.50;99.90;;;;;;5045774;28;20871;-75
2021/01/29 02:02:12;;;;;;;0.60;0.60;;;8.50;99.90;;;;;;5042665;28;20471;-75
2021/01/29 02:04:44;;;;;;;1.03;0.70;;;8.50;99.90;;;;;;5043750;28;20501;-75
2021/01/29 02:07:22;;;;;;;0.60;0.60;;;8.50;99.90;;;;;;5046428;28;20478;-75
2021/01/29 02:09:50;;;;;;;0.70;0.70;;;8.40;99.90;;;;;;5045274;28;20461;-76
2021/01/29 02:12:19;;;;;;;0.70;0.63;;;8.40;99.90;;;;;;5048680;28;21162;-75
2021/01/29 02:14:46;;;;;;;1.80;0.60;;;8.40;99.90;;;;;;5045944;28;20480;-75
2021/01/29 02:17:29;;;;;;;0.80;0.50;;;8.40;99.90;;;;;;5047713;28;20500;-75
2021/01/29 02:20:31;;;;;;;0.67;0.67;;;8.40;99.90;;;;;;5047034;28;21321;-76
2021/01/29 02:24:07;;;;;;;0.53;0.53;;;8.30;99.90;;;;;;5043927;28;20529;-75
2021/01/29 02:27:23;;;;;;;0.70;0.70;;;8.30;99.90;;;;;;5043536;28;20500;-75
2021/01/29 02:30:30;;;;;;;0.60;0.60;;;8.30;99.90;;;;;;5046602;28;20480;-75
2021/01/29 02:33:26;;;;;;;0.60;0.60;;;8.20;99.90;;;;;;5045547;28;20460;-76
2021/01/29 02:36:24;;;;;;;0.60;0.60;;;8.30;99.90;;;;;;5043959;28;20489;-76
2021/01/29 02:39:24;;;;;;;0.60;0.60;;;8.30;99.90;;;;;;5043670;28;21140;-75
2021/01/29 02:42:07;;;;;;;0.97;0.50;;;8.20;99.90;;;;;;5025065;28;20480;-75
2021/01/29 02:44:55;;;;;;;0.70;0.70;;;8.20;99.90;;;;;;5052822;28;20454;-76
2021/01/29 02:47:26;;;;;;;0.50;0.50;;;8.20;99.90;;;;;;5042146;28;20495;-75
2021/01/29 02:50:06;;;;;;;0.40;0.40;;;8.30;99.90;;;;;;5042180;28;20479;-75
2021/01/29 02:52:39;;;;;;;1.00;0.57;;;8.20;99.90;;;;;;5048011;28;20468;-75
2021/01/29 02:55:15;;;;;;;0.50;0.50;;;8.20;99.90;;;;;;5039284;28;20495;-75
2021/01/29 02:57:50;;;;;;;0.60;0.60;;;8.20;99.90;;;;;;5044576;28;20498;-75
2021/01/29 03:00:23;;;;;;;0.60;0.60;;;8.20;99.90;;;;;;5042893;28;20469;-75
2021/01/29 03:02:54;;;;;;;0.60;0.60;;;8.20;99.90;;;;;;5048133;28;21052;-76
2021/01/29 03:05:24;;;;;;;0.70;0.70;;;8.20;99.90;;;;;;5044570;28;20472;-75
2021/01/29 03:07:57;;;;;;;1.23;0.70;;;8.20;99.90;;;;;;5051712;28;20490;-76
2021/01/29 03:10:33;;;;;;;0.60;0.60;;;8.30;99.90;;;;;;5042805;28;20476;-76
2021/01/29 03:13:05;;;;;;;0.60;0.60;;;8.20;99.90;;;;;;5037021;28;21478;-75
2021/01/29 03:15:37;;;;;;;0.70;0.60;;;8.20;99.90;;;;;;5048243;28;20505;-75
2021/01/29 03:18:13;;;;;;;1.57;0.60;;;8.20;99.90;;;;;;5042436;28;20490;-75
2021/01/29 03:20:46;;;;;;;0.67;0.63;;;8.20;99.90;;;;;;5046726;28;20534;-75
2021/01/29 03:23:19;;;;;;;0.50;0.50;;;8.20;99.90;;;;;;5048064;28;20527;-76
2021/01/29 03:25:52;;;;;;;0.57;0.57;;;8.20;99.90;;;;;;5043814;28;20507;-76
2021/01/29 03:28:24;;;;;;;0.57;0.57;;;8.20;99.90;;;;;;5046341;28;20492;-75
2021/01/29 03:30:54;;;;;;;0.63;0.63;;;8.10;99.90;;;;;;5042962;28;20466;-76
2021/01/29 03:33:25;;;;;;;0.50;0.50;;;8.20;99.90;;;;;;5046237;28;20969;-76
2021/01/29 03:35:57;;;;;;;0.60;0.60;;;8.10;99.90;;;;;;5042627;28;20502;-75
2021/01/29 03:38:32;;;;;;;0.60;0.60;;;8.20;99.90;;;;;;5045644;28;20544;-75
2021/01/29 03:41:09;;;;;;;0.60;0.60;;;8.20;99.90;;;;;;5031763;28;20474;-75
2021/01/29 03:43:45;;;;;;;0.73;0.50;;;8.10;99.90;;;;;;5044049;28;20570;-75
2021/01/29 03:46:18;;;;;;;0.97;0.50;;;8.20;99.90;;;;;;5036784;28;20471;-75
2021/01/29 03:48:51;;;;;;;0.60;0.60;;;8.20;99.90;;;;;;5041263;28;20469;-74
2021/01/29 03:51:28;;;;;;;0.97;0.87;;;8.20;99.90;;;;;;5052168;28;20454;-75
2021/01/29 03:54:02;;;;;;;0.47;0.43;;;8.20;99.90;;;;;;5048299;28;20462;-75
2021/01/29 03:56:40;;;;;;;0.60;0.60;;;8.20;99.90;;;;;;5043276;28;20499;-74
2021/01/29 03:59:18;;;;;;;0.60;0.60;;;8.20;99.90;;;;;;5039899;28;20472;-75
2021/01/29 04:01:53;;;;;;;0.67;0.60;;;8.20;99.90;;;;;;5041435;28;20467;-75
2021/01/29 04:04:27;;;;;;;0.53;0.53;;;8.30;99.90;;;;;;5043147;28;20528;-75
2021/01/29 04:07:07;;;;;;;0.47;0.40;;;8.20;99.90;;;;;;5052059;28;20502;-75
2021/01/29 04:09:43;;;;;;;0.50;0.50;;;8.20;99.90;;;;;;5056203;28;21022;-75
2021/01/29 04:12:14;;;;;;;0.80;0.50;;;8.20;99.90;;;;;;5040898;28;21235;-75
2021/01/29 04:14:47;;;;;;;0.80;0.43;;;8.20;99.90;;;;;;5045527;28;20500;-75
2021/01/29 04:17:19;;;;;;;0.50;0.50;;;8.20;99.90;;;;;;5039898;28;20509;-75
2021/01/29 04:19:50;;;;;;;0.40;0.40;;;8.30;99.90;;;;;;5045494;28;20466;-75
2021/01/29 04:22:22;;;;;;;0.40;0.40;;;8.30;99.90;;;;;;5042618;28;20456;-75
2021/01/29 04:24:55;;;;;;;0.50;0.50;;;8.40;99.90;;;;;;5044793;28;20536;-75
2021/01/29 04:27:27;;;;;;;0.93;0.40;;;8.40;99.90;;;;;;5039869;28;20522;-75
2021/01/29 04:29:59;;;;;;;0.67;0.40;;;8.40;99.90;;;;;;5041540;28;21043;-75
2021/01/29 04:32:30;;;;;;;0.50;0.50;;;8.30;99.90;;;;;;5044578;28;20535;-75
2021/01/29 04:35:00;;;;;;;0.53;0.50;;;8.30;99.90;;;;;;5037008;28;20482;-75
2021/01/29 04:37:32;;;;;;;1.17;0.50;;;8.20;99.90;;;;;;5039106;28;20478;-75
2021/01/29 04:40:05;;;;;;;0.50;0.50;;;8.20;99.90;;;;;;5042935;28;20459;-76
2021/01/29 04:42:52;;;;;;;0.97;0.50;;;8.10;99.90;;;;;;5043480;28;20470;-75
2021/01/29 04:45:49;;;;;;;0.90;0.50;;;8.10;99.90;;;;;;5043026;28;20459;-75
2021/01/29 04:48:23;;;;;;;0.60;0.60;;;8.10;99.90;;;;;;5040009;28;21095;-75
2021/01/29 04:51:14;;;;;;;1.23;0.50;;;8.00;99.90;;;;;;5041146;28;20476;-74
2021/01/29 04:54:26;;;;;;;0.50;0.50;;;8.00;99.90;;;;;;5046003;28;20456;-75
2021/01/29 04:57:23;;;;;;;0.40;0.40;;;8.10;99.90;;;;;;5003474;28;20504;-75
2021/01/29 05:00:10;;;;;;;0.40;0.40;;;8.10;99.90;;;;;;5034342;28;20510;-76
2021/01/29 05:02:50;;;;;;;0.40;0.40;;;8.00;99.90;;;;;;5043490;28;20477;-74
2021/01/29 05:05:59;;;;;;;0.63;0.50;;;8.00;99.90;;;;;;5043008;28;20475;-74
2021/01/29 05:08:59;;;;;;;0.93;0.67;;;8.00;99.90;;;;;;4993347;28;20600;-75
2021/01/29 05:11:55;;;;;;;0.40;0.40;;;8.00;99.90;;;;;;5042246;28;20510;-75
2021/01/29 05:14:50;;;;;;;0.40;0.40;;;8.00;99.90;;;;;;5039065;28;20485;-76
2021/01/29 05:17:49;;;;;;;0.50;0.50;;;7.90;99.90;;;;;;5046964;28;20536;-74
2021/01/29 05:20:40;;;;;;;6.10;1.40;;;7.90;99.90;;;;;;5039041;28;20489;-74
2021/01/29 05:23:15;;;;;;;0.73;0.40;;;8.00;99.90;;;;;;5050932;28;20473;-74
2021/01/29 05:26:03;;;;;;;0.50;0.50;;;8.00;99.90;;;;;;5043409;28;22333;-76
2021/01/29 05:28:51;;;;;;;0.60;0.60;;;8.00;99.90;;;;;;5044455;28;20483;-78
2021/01/29 05:31:52;;;;;;;0.70;0.70;;;8.10;99.90;;;;;;5046690;28;20553;-78
2021/01/29 05:34:59;;;;;;;0.60;0.60;;;8.00;99.90;;;;;;5029785;28;21072;-78
2021/01/29 05:37:54;;;;;;;0.57;0.57;;;8.00;99.90;;;;;;4999702;28;20999;-75
2021/01/29 05:41:03;;;;;;;0.50;0.50;;;7.90;99.90;;;;;;5037703;28;20462;-77
2021/01/29 05:43:43;;;;;;;0.50;0.50;;;7.90;99.90;;;;;;5005041;28;20480;-74
2021/01/29 05:46:20;;;;;;;0.43;0.40;;;7.90;99.90;;;;;;5044258;28;20486;-73
2021/01/29 05:49:05;;;;;;;0.40;0.40;;;7.90;99.90;;;;;;5039437;28;21200;-73
2021/01/29 05:51:59;;;;;;;0.40;0.40;;;7.80;99.90;;;;;;5042074;28;20992;-74
2021/01/29 05:54:48;;;;;;;0.50;0.50;;;7.80;99.90;;;;;;5035189;28;20824;-75
2021/01/29 05:58:00;;;;;;;0.50;0.50;;;7.80;99.90;;;;;;5037661;28;20475;-74
2021/01/29 06:00:52;;;;;;;0.40;0.40;;;7.70;99.90;;;;;;5039180;28;20469;-75
2021/01/29 06:03:45;;;;;;;0.40;0.40;;;7.80;99.90;;;;;;5039956;28;20560;-74
2021/01/29 06:06:34;;;;;;;0.50;0.50;;;7.70;99.90;;;;;;5039889;28;20463;-74
2021/01/29 06:09:29;;;;;;;0.50;0.50;;;7.60;99.90;;;;;;5037551;28;20563;-74
2021/01/29 06:12:15;;;;;;;0.50;0.50;;;7.60;99.90;;;;;;5034107;28;20494;-75
2021/01/29 06:15:11;;;;;;;0.40;0.40;;;7.70;99.90;;;;;;5031729;28;20884;-75
2021/01/29 06:18:02;;;;;;;0.50;0.50;;;7.70;99.90;;;;;;5035407;28;20490;-75
2021/01/29 06:21:16;;;;;;;0.40;0.40;;;7.70;99.90;;;;;;5046679;28;20474;-74
2021/01/29 06:24:33;;;;;;;0.73;0.53;;;7.80;99.90;;;;;;5033245;28;20474;-74
2021/01/29 06:27:32;;;;;;;1.70;0.60;;;7.80;99.90;;;;;;5027652;28;21065;-76
2021/01/29 06:30:35;;;;;;;0.50;0.50;;;8.00;99.90;;;;;;5020281;28;20510;-75
2021/01/29 06:33:31;;;;;;;0.70;0.70;;;8.10;99.90;;;;;;5029514;28;21390;-76
2021/01/29 06:36:08;;;;;;;0.50;0.50;;;8.10;99.90;;;;;;5029197;28;20491;-74
2021/01/29 06:39:11;;;;;;;0.50;0.50;;;8.20;99.90;;;;;;5028907;28;20480;-74
2021/01/29 06:42:18;;;;;;;0.50;0.40;;;8.30;99.90;;;;;;5027409;28;20460;-75
2021/01/29 06:45:20;;;;;;;0.53;0.40;;;8.40;99.90;;;;;;5034023;28;20966;-74
2021/01/29 06:48:21;;;;;;;1.00;0.50;;;8.50;99.90;;;;;;5021558;28;20867;-74
2021/01/29 06:51:07;;;;;;;0.40;0.40;;;8.50;99.90;;;;;;5029465;28;20264;-74
2021/01/29 06:54:18;;;;;;;1.20;0.40;;;8.60;99.90;;;;;;5027446;28;20527;-75
2021/01/29 06:57:06;;;;;;;0.30;0.30;;;8.50;99.90;;;;;;4993815;28;20509;-74
2021/01/29 07:00:02;;;;;;;0.30;0.30;;;8.60;98.80;;;;;;4991035;28;20461;-78
2021/01/29 07:03:20;;;;;;;0.40;0.40;;;8.60;96.40;;;;;;5023018;28;20471;-74
2021/01/29 07:06:03;;;;;;;0.40;0.40;;;8.60;95.90;;;;;;5013317;28;20554;-74
2021/01/29 07:08:45;;;;;;;0.90;0.40;;;8.60;54.40;;;;;;5033012;28;20497;-73
2021/01/29 07:11:50;;;;;;;0.40;0.40;;;8.60;43.30;;;;;;5030451;28;20563;-73
2021/01/29 07:14:39;;;;;;;0.30;0.30;;;8.70;28.40;;;;;;5006934;28;20532;-74
2021/01/29 07:17:20;;;;;;;0.40;0.40;;;8.60;33.90;;;;;;5033038;28;20573;-73
2021/01/29 07:20:15;;;;;;;0.83;0.40;;;8.60;25.90;;;;;;5032433;28;20495;-74
2021/01/29 07:23:15;;;;;;;0.87;0.60;;;8.60;26.40;;;;;;5026634;28;20530;-76
2021/01/29 07:25:52;;;;;;;0.40;0.40;;;8.70;7.30;;;;;;5035763;28;20821;-75
2021/01/29 07:28:28;;;;;;;0.50;0.50;;;8.80;1.00;;;;;;5032094;28;20865;-73
2021/01/29 07:31:23;;;;;;;0.70;0.57;;;8.80;5.80;;;;;;5041440;28;20460;-74
2021/01/29 07:33:57;;;;;;;0.43;0.43;;;8.90;1.00;;;;;;5044136;28;20491;-75
2021/01/29 07:36:43;;;;;;;0.53;0.53;;;8.90;1.00;;;;;;5035289;28;20489;-73
2021/01/29 07:39:49;;;;;;;1.20;0.40;;;8.90;1.00;;;;;;5043689;28;20465;-74
2021/01/29 07:42:50;;;;;;;6.70;0.63;;;8.90;1.00;;;;;;5047174;28;20474;-75
2021/01/29 07:45:30;;;;;;;0.53;0.50;;;8.90;1.00;;;;;;5046227;28;20950;-74
2021/01/29 07:48:41;;;;;;;0.60;0.40;;;9.00;1.00;;;;;;5045568;28;20488;-76
2021/01/29 07:51:14;;;;;;;0.50;0.50;;;9.10;1.00;;;;;;5052089;28;20547;-77
2021/01/29 07:53:50;;;;;;;0.50;0.50;;;9.10;1.00;;;;;;5054323;28;20465;-77
2021/01/29 07:56:36;;;;;;;0.40;0.40;;;9.10;1.00;;;;;;5046751;28;20494;-73
2021/01/29 07:59:20;;;;;;;0.40;0.40;;;9.20;1.00;;;;;;5044354;28;20562;-75
2021/01/29 08:01:59;;;;;;;0.47;0.47;;;9.20;1.00;;;;;;5047979;28;20466;-74
2021/01/29 08:04:43;;;;;;;0.40;0.40;;;9.20;1.00;;;;;;5047170;28;21371;-74
2021/01/29 08:07:17;;;;;;;0.60;0.50;;;9.30;1.00;;;;;;5042834;28;20600;-74
2021/01/29 08:09:51;;;;;;;0.40;0.40;;;9.40;1.00;;;;;;5042411;28;20486;-74
2021/01/29 08:12:21;;;;;;;0.70;0.40;;;9.40;1.00;;;;;;5036227;28;20500;-73
2021/01/29 08:15:28;;;;;;;0.60;0.40;;;9.40;1.00;;;;;;5047984;28;20499;-74
2021/01/29 08:18:16;;;;;;;0.40;0.40;;;9.40;1.00;;;;;;5050343;28;20491;-74
2021/01/29 08:21:06;;;;;;;0.90;0.50;;;9.40;1.00;;;;;;5048385;28;20474;-74
2021/01/29 08:23:46;;;;;;;0.40;0.40;;;9.50;1.00;;;;;;5038787;28;20907;-75
2021/01/29 08:26:34;;;;;;;0.50;0.50;;;9.50;1.00;;;;;;5046679;28;20468;-75
2021/01/29 08:29:35;;;;;;;1.03;1.03;;;9.60;1.00;;;;;;5040003;28;20502;-76
2021/01/29 08:32:25;;;;;;;0.50;0.50;;;9.70;1.00;;;;;;5044435;28;20875;-75
2021/01/29 08:35:31;;;;;;;0.87;0.40;;;9.60;1.00;;;;;;5045309;28;20461;-75
2021/01/29 08:38:05;;;;;;;0.50;0.50;;;9.70;1.00;;;;;;5051363;28;20571;-75
2021/01/29 08:40:36;;;;;;;0.40;0.40;;;9.70;1.00;;;;;;5047856;28;21028;-76
2021/01/29 08:43:52;;;;;;;0.40;0.40;;;9.80;1.00;;;;;;5043154;28;20549;-76
2021/01/29 08:46:49;;;;;;;0.93;0.50;;;9.80;1.00;;;;;;5046644;28;20465;-77
2021/01/29 08:49:52;;;;;;;0.50;0.50;;;10.00;1.00;;;;;;5031772;28;21168;-74
2021/01/29 08:52:41;;;;;;;0.73;0.40;;;9.90;99.90;;;;;;5027477;28;20486;-74
2021/01/29 08:55:23;;;;;;;0.50;0.50;;;9.80;99.90;;;;;;5044766;28;20471;-75
2021/01/29 08:57:57;;;;;;;0.50;0.40;;;9.80;99.90;;;;;;5042710;28;20467;-74
2021/01/29 09:00:28;;;;;;;0.40;0.40;;;9.80;99.90;;;;;;5043261;28;20494;-75
2021/01/29 09:03:07;;;;;;;0.50;0.50;;;9.90;99.90;;;;;;5039495;28;20694;-75
2021/01/29 09:05:36;;;;;;;0.40;0.40;;;9.80;99.90;;;;;;5039539;28;21031;-76
2021/01/29 09:08:06;;;;;;;0.80;0.50;;;9.90;1.00;;;;;;5045158;28;20859;-74
2021/01/29 09:11:12;;;;;;;0.50;0.50;;;10.00;1.00;;;;;;5050859;28;20471;-75
2021/01/29 09:13:41;;;;;;;0.40;0.40;;;9.90;1.00;;;;;;5014515;28;20521;-75
2021/01/29 09:16:15;;;;;;;0.40;0.40;;;9.90;1.00;;;;;;5047684;28;20480;-76
2021/01/29 09:18:49;;;;;;;4.57;0.70;;;10.00;1.00;;;;;;5047517;28;20465;-75
2021/01/29 09:21:29;;;;;;;0.57;0.50;;;10.00;1.00;;;;;;5039843;28;20523;-75
2021/01/29 09:24:03;;;;;;;0.50;0.50;;;10.30;1.00;;;;;;5043841;28;20465;-76
2021/01/29 09:26:37;;;;;;;1.43;0.60;;;10.90;1.00;;;;;;5041509;28;20597;-74
2021/01/29 09:29:14;;;;;;;1.50;0.43;;;11.20;99.90;;;;;;5042703;28;20477;-75
2021/01/29 09:31:42;;;;;;;1.30;0.57;;;11.30;30.80;;;;;;5035771;28;20460;-75
2021/01/29 09:34:16;;;;;;;1.60;0.80;;;11.40;99.90;;;;;;5043988;28;20527;-75
2021/01/29 09:36:51;;;;;;;1.20;0.70;;;11.60;1.00;;;;;;5044883;28;20487;-76
2021/01/29 09:39:46;;;;;;;1.80;0.50;;;11.70;99.90;;;;;;5035802;28;21098;-75
2021/01/29 09:42:21;;;;;;;2.90;1.00;;;11.40;99.90;;;;;;5043447;28;20518;-75
2021/01/29 09:44:57;;;;;;;0.93;0.50;;;11.00;99.90;;;;;;5042945;28;20481;-75
2021/01/29 09:47:26;;;;;;;3.67;0.90;;;10.80;99.90;;;;;;5049446;28;20555;-75
2021/01/29 09:50:01;;;;;;;0.80;0.70;;;10.40;99.90;;;;;;5049265;28;20545;-75
2021/01/29 09:52:36;;;;;;;2.07;0.53;;;10.10;1.00;;;;;;5047231;28;20868;-75
2021/01/29 09:55:11;;;;;;;0.93;0.60;;;9.90;1.00;;;;;;5050629;28;20446;-75
2021/01/29 09:57:48;;;;;;;0.90;0.70;;;10.10;1.00;;;;;;5046639;28;21014;-76
2021/01/29 10:00:20;;;;;;;7.00;0.90;;;10.40;1.00;;;;;;5047835;28;20477;-76
2021/01/29 10:03:00;;;;;;;3.10;0.70;;;10.70;99.90;;;;;;5048185;28;20975;-76
2021/01/29 10:05:31;;;;;;;0.93;0.60;;;10.80;61.20;;;;;;5047262;28;20464;-74
2021/01/29 10:08:11;;;;;;;2.03;0.90;;;10.50;99.90;;;;;;5049919;28;20491;-75
2021/01/29 10:10:48;;;;;;;0.90;0.70;;;10.20;31.80;;;;;;5052253;28;20471;-75
2021/01/29 10:13:30;;;;;;;1.20;0.60;;;10.50;1.00;;;;;;5048394;28;20505;-76
2021/01/29 10:16:12;;;;;;;1.00;0.60;;;11.60;1.00;;;;;;5048621;28;20477;-76
2021/01/29 10:18:41;;;;;;;1.00;0.67;;;12.30;1.00;;;;;;5044928;28;20487;-76
2021/01/29 10:21:16;;;;;;;2.43;0.70;;;12.00;1.00;;;;;;5046820;28;20462;-74
2021/01/29 10:23:50;;;;;;;0.60;0.53;;;11.70;99.90;;;;;;5035349;28;20466;-75
2021/01/29 10:26:26;;;;;;;0.60;0.60;;;12.40;99.90;;;;;;5040554;28;20813;-73
2021/01/29 10:29:11;;;;;;;1.30;0.67;;;15.00;99.90;;;;;;5044479;28;20478;-73
2021/01/29 10:32:02;;;;;;;1.77;0.60;;;18.30;99.90;;;;;;5047950;28;20814;-74
2021/01/29 10:34:36;;;;;;;0.70;0.50;;;20.60;99.90;;;;;;5044019;28;20451;-74
2021/01/29 10:37:11;;;;;;;0.50;0.43;;;22.60;99.90;;;;;;5048144;28;20507;-74
2021/01/29 10:40:07;;;;;;;0.93;0.60;;;22.30;99.90;;;;;;5040161;28;20474;-75
2021/01/29 10:42:47;;;;;;;1.67;0.60;;;22.50;99.90;;;;;;5040359;28;20455;-74
2021/01/29 10:45:22;;;;;;;1.03;0.60;;;21.20;99.90;;;;;;5047348;28;20462;-74
2021/01/29 10:47:55;;;;;;;1.03;0.70;;;22.10;99.90;;;;;;5046622;28;22426;-75
2021/01/29 10:50:27;;;;;;;1.93;0.70;;;21.80;99.90;;;;;;5052173;28;20891;-75
2021/01/29 10:53:08;;;;;;;2.37;1.10;;;20.80;99.90;;;;;;5044968;28;20507;-75
2021/01/29 10:55:40;;;;;;;2.03;0.90;;;19.80;99.90;;;;;;5046335;28;20519;-75
2021/01/29 10:58:25;;;;;;;3.10;0.80;;;17.90;99.90;;;;;;5048167;28;20467;-73
2021/01/29 11:00:55;;;;;;;1.33;0.60;;;16.40;99.90;;;;;;5041136;28;20447;-74
2021/01/29 11:03:49;;;;;;;2.37;0.83;;;14.90;99.90;;;;;;5043149;28;20509;-73
2021/01/29 11:06:21;;;;;;;2.03;0.80;;;14.00;99.90;;;;;;5046202;28;20472;-74
2021/01/29 11:08:52;;;;;;;3.70;0.93;;;13.40;99.90;;;;;;5050191;28;20925;-73
2021/01/29 11:11:25;;;;;;;1.50;0.87;;;12.60;99.90;;;;;;5042440;28;20875;-72
2021/01/29 11:13:59;;;;;;;1.67;0.77;;;12.00;1.00;;;;;;5039237;28;20468;-74
2021/01/29 11:16:36;;;;;;;4.30;0.90;;;11.40;1.00;;;;;;5037531;28;20603;-75
2021/01/29 11:19:06;;;;;;;1.10;0.80;;;11.00;99.90;;;;;;5049821;28;20533;-75
2021/01/29 11:21:44;;;;;;;1.70;0.80;;;10.80;99.90;;;;;;5046674;28;20533;-73
2021/01/29 11:24:16;;;;;;;1.57;0.80;;;10.70;99.90;;;;;;5045984;28;20498;-73
2021/01/29 11:26:53;;;;;;;1.83;0.80;;;10.70;1.00;;;;;;5040972;28;20533;-74
2021/01/29 11:29:35;;;;;;;1.40;0.70;;;10.60;1.00;;;;;;5037151;28;20463;-73
2021/01/29 11:32:22;;;;;;;4.63;0.80;;;10.40;99.90;;;;;;5044825;28;21032;-74
2021/01/29 11:34:56;;;;;;;2.00;0.70;;;10.30;1.00;;;;;;5046489;28;20551;-73
2021/01/29 11:37:31;;;;;;;0.83;0.80;;;10.30;99.90;;;;;;5051728;28;20473;-73
2021/01/29 11:40:10;;;;;;;2.03;0.80;;;10.40;1.00;;;;;;5037172;28;21034;-73
2021/01/29 11:42:44;;;;;;;1.40;0.80;;;10.60;99.90;;;;;;5036302;28;20471;-75
2021/01/29 11:45:17;;;;;;;1.17;0.80;;;11.10;1.00;;;;;;5042109;28;20471;-73
2021/01/29 11:47:57;;;;;;;1.30;0.80;;;11.20;99.90;;;;;;5049920;28;20465;-72
2021/01/29 11:50:32;;;;;;;1.20;0.80;;;10.90;99.90;;;;;;5046542;28;20485;-72
2021/01/29 11:53:05;;;;;;;1.60;0.60;;;10.70;1.00;;;;;;5048739;28;20819;-73
2021/01/29 11:55:40;;;;;;;5.60;0.93;;;10.90;1.00;;;;;;5043284;28;20530;-72
2021/01/29 11:58:15;;;;;;;3.47;1.10;;;11.40;99.90;;;;;;5041894;28;20480;-74
2021/01/29 12:00:48;;;;;;;1.90;0.80;;;12.10;24.10;;;;;;5038789;28;20470;-72
2021/01/29 12:03:23;;;;;;;1.67;0.73;;;12.10;1.00;;;;;;5042207;28;20460;-73
2021/01/29 12:05:56;;;;;;;1.07;0.70;;;11.80;1.00;;;;;;5043278;28;20457;-72
2021/01/29 12:08:36;;;;;;;2.17;0.73;;;12.20;1.00;;;;;;5044949;28;20488;-73
2021/01/29 12:11:12;;;;;;;2.63;1.53;;;12.40;1.00;;;;;;5042921;28;22644;-73
2021/01/29 12:13:54;;;;;;;2.50;1.00;;;12.60;1.00;;;;;;5047428;28;20877;-72
2021/01/29 12:16:25;;;;;;;1.63;0.70;;;12.80;1.00;;;;;;5042758;28;20495;-73
2021/01/29 12:18:55;;;;;;;0.80;0.67;;;13.00;1.00;;;;;;5041790;28;20471;-73
2021/01/29 12:21:40;;;;;;;1.63;1.23;;;13.10;99.90;;;;;;5038925;28;20481;-73
2021/01/29 12:24:21;;;;;;;2.27;1.50;;;12.80;99.90;;;;;;5044132;28;20519;-74
2021/01/29 12:26:58;;;;;;;4.07;1.30;;;12.40;1.00;;;;;;5039393;28;20489;-73
2021/01/29 12:29:38;;;;;;;2.10;1.13;;;12.10;1.00;;;;;;5044155;28;20962;-72
2021/01/29 12:32:40;;;;;;;3.33;1.03;;;11.60;1.00;;;;;;5044712;28;20472;-73
2021/01/29 12:35:15;;;;;;;1.47;0.73;;;11.40;1.00;;;;;;5043119;28;20577;-74
2021/01/29 12:38:03;;;;;;;4.00;0.93;;;11.10;1.00;;;;;;5043192;28;20485;-73
2021/01/29 12:40:37;;;;;;;3.60;1.00;;;11.00;90.60;;;;;;5042950;28;20466;-73
2021/01/29 12:43:13;;;;;;;1.43;0.70;;;10.80;99.90;;;;;;5052467;28;20473;-73
2021/01/29 12:45:49;;;;;;;2.10;0.60;;;10.60;1.00;;;;;;5038920;28;20519;-73
2021/01/29 12:48:21;;;;;;;3.50;0.77;;;10.50;77.10;;;;;;5045423;28;20591;-73
2021/01/29 12:50:56;;;;;;;0.80;0.70;;;10.60;99.90;;;;;;5047503;28;20466;-72
2021/01/29 12:53:34;;;;;;;0.73;0.70;;;11.20;52.00;;;;;;5052051;28;20474;-72
2021/01/29 12:56:14;;;;;;;1.50;0.60;;;11.80;99.90;;;;;;5040573;28;20460;-72
2021/01/29 12:58:45;;;;;;;0.80;0.70;;;11.70;78.60;;;;;;5037516;28;21756;-74
2021/01/29 13:01:25;;;;;;;0.60;0.60;;;11.40;99.90;;;;;;5036980;28;20465;-73
2021/01/29 13:03:56;;;;;;;3.47;0.60;;;11.00;1.00;;;;;;5042839;28;20548;-73
2021/01/29 13:06:40;;;;;;;0.80;0.50;;;10.60;1.00;;;;;;5043254;28;20469;-72
2021/01/29 13:09:34;;;;;;;1.87;0.60;;;10.30;1.00;;;;;;5038040;28;20462;-72
2021/01/29 13:12:24;;;;;;;2.00;0.70;;;9.90;1.00;;;;;;5045823;28;20459;-72
2021/01/29 13:15:07;;;;;;;0.80;0.60;;;9.90;99.90;;;;;;5041885;28;20460;-73
2021/01/29 13:17:39;;;;;;;0.90;0.50;;;9.80;30.50;;;;;;5026776;28;20480;-73
2021/01/29 13:20:12;;;;;;;1.47;0.60;;;9.70;1.00;;;;;;5050797;28;20495;-73
2021/01/29 13:22:45;;;;;;;1.03;0.57;;;9.60;99.90;;;;;;5045590;28;20818;-73
2021/01/29 13:25:19;;;;;;;1.80;0.60;;;9.50;99.90;;;;;;5051353;28;20473;-73
2021/01/29 13:27:53;;;;;;;1.23;0.40;;;9.70;1.00;;;;;;5053226;28;20485;-73
2021/01/29 13:30:28;;;;;;;1.17;0.40;;;9.60;99.90;;;;;;5050771;28;21089;-73
2021/01/29 13:32:59;;;;;;;0.50;0.50;;;9.60;1.00;;;;;;5044557;28;20450;-73
2021/01/29 13:35:31;;;;;;;0.50;0.50;;;9.70;99.90;;;;;;5047206;28;20475;-74
2021/01/29 13:38:15;;;;;;;0.60;0.60;;;9.80;99.90;;;;;;5042079;28;20486;-73
2021/01/29 13:40:43;;;;;;;0.50;0.50;;;10.30;1.00;;;;;;5047920;28;20965;-73
2021/01/29 13:43:20;;;;;;;0.83;0.70;;;10.40;1.00;;;;;;5044932;28;20467;-74
2021/01/29 13:45:48;;;;;;;1.80;0.80;;;10.90;98.70;;;;;;5046370;28;20472;-74
2021/01/29 13:48:20;;;;;;;1.27;0.60;;;11.20;99.90;;;;;;5053949;28;20527;-73
2021/01/29 13:50:49;;;;;;;1.87;0.93;;;11.20;99.90;;;;;;5050544;28;20474;-74
2021/01/29 13:53:34;;;;;;;3.83;0.87;;;11.20;99.90;;;;;;5043565;28;20448;-74
2021/01/29 13:56:04;;;;;;;1.77;0.50;;;11.40;1.00;;;;;;5053028;28;20602;-74
2021/01/29 13:58:36;;;;;;;1.03;0.53;;;11.60;99.90;;;;;;5051531;28;20520;-73
2021/01/29 14:01:08;;;;;;;1.10;0.60;;;11.80;1.00;;;;;;5048334;28;20492;-75